createdAt,value
2023-02-28T00:00:54.548Z,59.40
2023-02-28T00:03:21.220Z,59.36
2023-02-28T00:05:47.954Z,59.05
2023-02-28T00:08:14.796Z,58.98
2023-02-28T00:10:41.525Z,59.20
2023-02-28T00:13:08.382Z,59.72
2023-02-28T00:15:35.493Z,59.44
2023-02-28T00:18:03.670Z,60.09
2023-02-28T00:20:30.298Z,59.54
2023-02-28T00:22:57.216Z,58.78
2023-02-28T00:25:25.995Z,59.01
2023-02-28T00:27:52.783Z,59.63
2023-02-28T00:30:21.479Z,59.84
2023-02-28T00:32:48.628Z,60.66
2023-02-28T00:35:15.771Z,59.85
2023-02-28T00:37:42.618Z,58.98
2023-02-28T00:40:10.598Z,60.24
2023-02-28T00:42:37.358Z,60.38
2023-02-28T00:45:04.797Z,60.47
2023-02-28T00:47:32.462Z,60.34
2023-02-28T00:49:59.400Z,58.75
2023-02-28T00:52:26.433Z,59.39
2023-02-28T00:54:53.124Z,59.29
2023-02-28T00:57:22.318Z,60.48
2023-02-28T00:59:51.727Z,60.10
2023-02-28T01:02:18.309Z,60.78
2023-02-28T01:04:44.994Z,60.87
2023-02-28T01:07:11.676Z,59.57
2023-02-28T01:09:38.337Z,60.64
2023-02-28T01:12:05.101Z,60.68
2023-02-28T01:14:34.292Z,60.83
2023-02-28T01:17:01.123Z,60.68
2023-02-28T01:19:27.953Z,60.75
2023-02-28T01:21:54.533Z,60.63
2023-02-28T01:24:21.164Z,61.50
2023-02-28T01:26:47.777Z,61.02
2023-02-28T01:29:14.435Z,61.86
2023-02-28T01:31:41.131Z,61.34
2023-02-28T01:34:08.061Z,61.35
2023-02-28T01:36:34.791Z,60.36
2023-02-28T01:39:01.419Z,62.24
2023-02-28T01:41:31.436Z,62.22
2023-02-28T01:44:11.314Z,60.77
2023-02-28T01:46:38.051Z,61.19
2023-02-28T01:49:13.965Z,61.92
2023-02-28T01:51:48.203Z,60.67
2023-02-28T01:54:23.260Z,61.67
2023-02-28T01:57:14.293Z,61.24
2023-02-28T02:00:03.716Z,60.68
2023-02-28T02:02:30.793Z,61.03
2023-02-28T02:05:11.103Z,62.19
2023-02-28T02:07:41.437Z,61.86
2023-02-28T02:10:08.676Z,61.20
2023-02-28T02:12:49.445Z,61.77
2023-02-28T02:15:29.816Z,62.90
2023-02-28T02:18:03.335Z,61.41
2023-02-28T02:20:57.982Z,62.08
2023-02-28T02:23:58.198Z,61.73
2023-02-28T02:26:42.676Z,61.77
2023-02-28T02:29:33.980Z,61.38
2023-02-28T02:32:19.561Z,63.37
2023-02-28T02:35:27.579Z,61.96
2023-02-28T02:38:05.200Z,61.03
2023-02-28T02:40:41.691Z,61.05
2023-02-28T02:43:32.525Z,61.20
2023-02-28T02:46:33.038Z,62.04
2023-02-28T02:49:04.747Z,61.23
2023-02-28T02:51:34.286Z,61.87
2023-02-28T02:54:16.763Z,62.34
2023-02-28T02:56:47.560Z,62.54
2023-02-28T02:59:18.875Z,62.22
2023-02-28T03:01:45.706Z,61.79
2023-02-28T03:04:20.628Z,62.09
2023-02-28T03:06:47.374Z,62.47
2023-02-28T03:09:14.591Z,62.41
2023-02-28T03:11:43.024Z,63.47
2023-02-28T03:14:43.327Z,64.09
2023-02-28T03:17:36.789Z,62.90
2023-02-28T03:20:15.489Z,62.98
2023-02-28T03:22:51.955Z,62.28
2023-02-28T03:25:33.873Z,61.86
2023-02-28T03:28:39.678Z,62.86
2023-02-28T03:31:42.565Z,63.36
2023-02-28T03:34:35.316Z,62.89
2023-02-28T03:37:10.312Z,64.00
2023-02-28T03:40:02.636Z,64.54
2023-02-28T03:42:33.000Z,63.76
2023-02-28T03:45:10.390Z,64.33
2023-02-28T03:47:54.549Z,64.05
2023-02-28T03:50:42.483Z,63.13
2023-02-28T03:53:26.588Z,62.64
2023-02-28T03:56:01.344Z,62.39
2023-02-28T03:58:43.669Z,62.29
2023-02-28T04:01:25.320Z,63.32
2023-02-28T04:03:52.647Z,64.23
2023-02-28T04:06:21.757Z,63.34
2023-02-28T04:08:49.244Z,62.76
2023-02-28T04:11:15.785Z,63.17
2023-02-28T04:13:42.384Z,62.50
2023-02-28T04:16:09.046Z,64.28
2023-02-28T04:18:35.887Z,64.47
2023-02-28T04:21:02.508Z,64.30
2023-02-28T04:23:29.300Z,63.63
2023-02-28T04:25:56.708Z,64.01
2023-02-28T04:28:23.308Z,64.14
2023-02-28T04:30:58.653Z,65.09
2023-02-28T04:33:25.339Z,64.64
2023-02-28T04:36:04.775Z,65.11
2023-02-28T04:38:34.830Z,65.24
2023-02-28T04:41:01.563Z,64.89
2023-02-28T04:43:29.514Z,66.09
2023-02-28T04:45:57.389Z,65.00
2023-02-28T04:48:29.198Z,65.21
2023-02-28T04:50:56.064Z,64.29
2023-02-28T04:53:22.965Z,65.81
2023-02-28T04:55:49.684Z,65.31
2023-02-28T04:58:16.589Z,64.33
2023-02-28T05:00:43.294Z,64.43
2023-02-28T05:03:09.944Z,65.76
2023-02-28T05:05:36.676Z,64.99
2023-02-28T05:08:03.381Z,65.61
2023-02-28T05:10:30.039Z,65.47
2023-02-28T05:12:56.871Z,65.20
2023-02-28T05:15:23.759Z,67.07
2023-02-28T05:17:50.403Z,65.91
2023-02-28T05:20:17.573Z,65.25
2023-02-28T05:22:44.977Z,66.05
2023-02-28T05:25:21.639Z,65.07
2023-02-28T05:27:48.401Z,64.31
2023-02-28T05:30:15.082Z,65.48
2023-02-28T05:32:42.676Z,65.29
2023-02-28T05:35:12.732Z,63.66
2023-02-28T05:37:39.823Z,65.03
2023-02-28T05:40:07.856Z,64.30
2023-02-28T05:42:34.556Z,64.98
2023-02-28T05:45:01.354Z,65.16
2023-02-28T05:47:28.023Z,64.99
2023-02-28T05:49:54.729Z,65.88
2023-02-28T05:52:21.327Z,64.65
2023-02-28T05:54:48.316Z,64.60
2023-02-28T05:57:23.996Z,66.55
2023-02-28T05:59:51.551Z,65.27
2023-02-28T06:02:18.961Z,65.13
2023-02-28T06:04:45.920Z,63.60
2023-02-28T06:07:12.918Z,63.39
2023-02-28T06:09:39.674Z,63.63
2023-02-28T06:12:07.982Z,64.60
2023-02-28T06:14:35.642Z,64.08
2023-02-28T06:17:02.817Z,62.68
2023-02-28T06:19:30.033Z,63.41
2023-02-28T06:21:57.901Z,64.06
2023-02-28T06:24:26.547Z,65.54
2023-02-28T06:26:53.201Z,63.67
2023-02-28T06:29:20.182Z,65.23
2023-02-28T06:31:47.773Z,64.65
2023-02-28T06:34:14.905Z,63.72
2023-02-28T06:36:43.237Z,64.26
2023-02-28T06:39:10.615Z,64.11
2023-02-28T06:41:53.112Z,64.70
2023-02-28T06:44:20.704Z,64.04
2023-02-28T06:46:48.061Z,64.98
2023-02-28T06:49:14.760Z,64.45
2023-02-28T06:51:43.121Z,63.07
2023-02-28T06:54:09.835Z,63.15
2023-02-28T06:56:37.257Z,63.57
2023-02-28T06:59:04.592Z,62.71
2023-02-28T07:01:32.255Z,62.13
2023-02-28T07:04:00.476Z,64.37
2023-02-28T07:06:27.698Z,62.16
2023-02-28T07:08:55.126Z,60.89
2023-02-28T07:11:24.103Z,60.44
2023-02-28T07:13:51.302Z,61.24
2023-02-28T07:16:17.926Z,60.33
2023-02-28T07:18:44.597Z,61.08
2023-02-28T07:21:11.699Z,62.13
2023-02-28T07:23:39.550Z,60.00
2023-02-28T07:26:07.035Z,61.09
2023-02-28T07:28:33.984Z,60.99
2023-02-28T07:31:07.459Z,59.62
2023-02-28T07:33:34.909Z,60.40
2023-02-28T07:36:07.565Z,60.32
2023-02-28T07:38:38.466Z,59.65
2023-02-28T07:41:05.446Z,61.41
2023-02-28T07:43:32.990Z,59.83
2023-02-28T07:46:09.506Z,58.53
2023-02-28T07:48:36.345Z,57.91
2023-02-28T07:51:03.595Z,58.27
2023-02-28T07:56:22.852Z,56.03
2023-02-28T07:58:49.588Z,58.59
2023-02-28T08:01:16.481Z,57.54
2023-02-28T08:03:43.323Z,57.94
2023-02-28T08:06:23.487Z,56.83
2023-02-28T08:08:50.284Z,56.52
2023-02-28T08:11:18.240Z,57.26
2023-02-28T08:13:45.788Z,54.98
2023-02-28T08:16:14.403Z,54.63
2023-02-28T08:18:41.270Z,54.95
2023-02-28T08:21:09.722Z,55.69
2023-02-28T08:23:36.948Z,54.74
2023-02-28T08:26:04.548Z,55.14
2023-02-28T08:28:31.301Z,53.86
2023-02-28T08:30:58.130Z,54.23
2023-02-28T08:33:25.793Z,53.92
2023-02-28T08:35:56.683Z,52.55
2023-02-28T08:38:24.311Z,53.76
2023-02-28T08:40:51.158Z,52.12
2023-02-28T08:43:17.858Z,53.74
2023-02-28T08:45:44.587Z,52.74
2023-02-28T08:48:11.429Z,54.17
2023-02-28T08:50:38.276Z,55.11
2023-02-28T08:53:04.915Z,52.90
2023-02-28T08:55:31.781Z,54.27
2023-02-28T08:57:58.710Z,52.82
2023-02-28T09:00:25.667Z,54.69
2023-02-28T09:02:52.415Z,53.21
2023-02-28T09:05:19.277Z,52.01
2023-02-28T09:07:46.230Z,53.38
2023-02-28T09:10:12.925Z,51.70
2023-02-28T09:12:39.840Z,52.00
2023-02-28T09:15:07.304Z,52.03
2023-02-28T09:17:33.923Z,50.70
2023-02-28T09:20:00.751Z,51.53
2023-02-28T09:22:27.450Z,53.03
2023-02-28T09:24:54.208Z,56.06
2023-02-28T09:27:20.891Z,55.11
2023-02-28T09:29:47.939Z,53.12
2023-02-28T09:32:14.747Z,53.52
2023-02-28T09:34:41.494Z,49.32
2023-02-28T09:37:08.698Z,52.70
2023-02-28T09:39:35.388Z,53.20
2023-02-28T09:42:04.105Z,53.96
2023-02-28T09:44:39.842Z,50.39
2023-02-28T09:47:28.623Z,51.60
2023-02-28T09:49:59.000Z,51.38
2023-02-28T09:52:30.640Z,50.99
2023-02-28T09:55:09.420Z,50.97
2023-02-28T09:57:40.118Z,51.43
2023-02-28T10:00:30.433Z,52.24
2023-02-28T10:03:12.441Z,52.55
2023-02-28T10:05:44.636Z,52.18
2023-02-28T10:08:29.356Z,51.57
2023-02-28T10:10:59.582Z,52.85
2023-02-28T10:13:37.583Z,53.18
2023-02-28T10:16:14.170Z,50.97
2023-02-28T10:18:48.700Z,51.07
2023-02-28T10:22:07.856Z,51.06
2023-02-28T10:24:45.346Z,52.43
2023-02-28T10:27:20.666Z,52.21
2023-02-28T10:29:53.590Z,51.21
2023-02-28T10:32:25.204Z,49.79
2023-02-28T10:35:16.241Z,50.44
2023-02-28T10:37:47.279Z,52.16
2023-02-28T10:40:19.930Z,52.87
2023-02-28T10:43:19.098Z,52.41
2023-02-28T10:46:12.047Z,51.70
2023-02-28T10:48:57.421Z,50.58
2023-02-28T10:51:24.261Z,51.74
2023-02-28T10:54:00.965Z,50.63
2023-02-28T10:56:28.845Z,49.80
2023-02-28T10:59:01.721Z,52.78
2023-02-28T11:01:31.427Z,52.67
2023-02-28T11:03:59.175Z,51.68
2023-02-28T11:06:34.785Z,49.70
2023-02-28T11:09:05.696Z,52.38
2023-02-28T11:11:45.345Z,52.26
2023-02-28T11:14:25.536Z,51.44
2023-02-28T11:16:53.644Z,51.31
2023-02-28T11:19:35.378Z,50.50
2023-02-28T11:22:05.245Z,51.06
2023-02-28T11:24:31.868Z,49.48
2023-02-28T11:26:58.637Z,51.44
2023-02-28T11:29:31.506Z,51.28
2023-02-28T11:32:13.437Z,52.54
2023-02-28T11:34:41.677Z,52.00
2023-02-28T11:37:19.372Z,51.34
2023-02-28T11:39:46.583Z,50.48
2023-02-28T11:42:37.375Z,50.94
2023-02-28T11:45:19.216Z,50.20
2023-02-28T11:48:02.428Z,53.70
2023-02-28T11:51:09.350Z,53.19
2023-02-28T11:53:50.934Z,52.00
2023-02-28T11:56:26.426Z,50.63
2023-02-28T11:59:34.774Z,50.82
2023-02-28T12:02:07.210Z,49.21
2023-02-28T12:04:58.105Z,50.85
2023-02-28T12:07:30.732Z,54.07
2023-02-28T12:10:06.176Z,50.68
2023-02-28T12:13:13.830Z,51.92
2023-02-28T12:15:43.723Z,52.18
2023-02-28T12:18:47.727Z,52.42
2023-02-28T12:21:31.070Z,51.83
2023-02-28T12:24:08.548Z,50.18
2023-02-28T12:26:42.133Z,51.51
2023-02-28T12:29:18.741Z,51.13
2023-02-28T12:31:57.058Z,50.43
2023-02-28T12:34:30.498Z,50.23
2023-02-28T12:37:01.922Z,50.23
2023-02-28T12:39:49.472Z,50.29
2023-02-28T12:42:31.650Z,51.44
2023-02-28T12:45:14.912Z,49.95
2023-02-28T12:47:43.868Z,50.44
2023-02-28T12:50:12.061Z,50.15
2023-02-28T12:52:43.017Z,48.24
2023-02-28T12:55:13.658Z,47.92
2023-02-28T12:57:42.586Z,48.72
2023-02-28T13:00:24.908Z,49.13
2023-02-28T13:03:05.826Z,50.42
2023-02-28T13:05:47.914Z,48.72
2023-02-28T13:08:49.716Z,48.73
2023-02-28T13:11:40.667Z,51.31
2023-02-28T13:14:29.553Z,48.26
2023-02-28T13:17:00.949Z,48.78
2023-02-28T13:19:31.131Z,49.93
2023-02-28T13:21:59.360Z,48.50
2023-02-28T13:24:46.033Z,49.14
2023-02-28T13:27:15.779Z,49.75
2023-02-28T13:29:44.336Z,49.85
2023-02-28T13:32:10.985Z,49.71
2023-02-28T13:34:52.932Z,50.58
2023-02-28T13:37:22.165Z,49.92
2023-02-28T13:39:51.683Z,49.53
2023-02-28T13:42:36.699Z,49.42
2023-02-28T13:45:06.535Z,49.11
2023-02-28T13:47:54.236Z,49.71
2023-02-28T13:50:26.946Z,49.07
2023-02-28T13:53:02.807Z,49.89
2023-02-28T13:55:48.939Z,49.76
2023-02-28T13:58:46.732Z,48.80
2023-02-28T14:01:19.751Z,49.39
2023-02-28T14:04:04.716Z,49.91
2023-02-28T14:06:34.064Z,49.92
2023-02-28T14:09:03.067Z,51.22
2023-02-28T14:11:48.040Z,51.19
2023-02-28T14:14:36.829Z,49.10
2023-02-28T14:17:06.338Z,48.79
2023-02-28T14:19:35.357Z,49.59
2023-02-28T14:22:34.455Z,50.13
2023-02-28T14:25:23.732Z,51.08
2023-02-28T14:27:50.425Z,50.53
2023-02-28T14:30:49.082Z,49.75
2023-02-28T14:33:30.987Z,50.20
2023-02-28T14:36:21.627Z,51.50
2023-02-28T14:38:54.300Z,51.04
2023-02-28T14:41:25.567Z,51.50
2023-02-28T14:44:02.836Z,52.76
2023-02-28T14:46:55.654Z,52.88
2023-02-28T14:49:31.063Z,51.94
2023-02-28T14:52:16.064Z,52.45
2023-02-28T14:54:43.406Z,52.82
2023-02-28T14:57:25.552Z,52.78
2023-02-28T15:00:28.798Z,51.93
2023-02-28T15:02:57.342Z,53.05
2023-02-28T15:05:30.257Z,53.17
2023-02-28T15:08:07.214Z,54.18
2023-02-28T15:10:34.729Z,52.75
2023-02-28T15:13:08.221Z,53.11
2023-02-28T15:16:01.875Z,53.76
2023-02-28T15:18:44.548Z,54.71
2023-02-28T15:21:32.727Z,54.27
2023-02-28T15:24:02.451Z,54.45
2023-02-28T15:26:42.507Z,54.20
2023-02-28T15:29:21.816Z,53.19
2023-02-28T15:32:08.539Z,53.83
2023-02-28T15:34:44.003Z,55.08
2023-02-28T15:37:38.650Z,54.10
2023-02-28T15:40:19.233Z,54.14
2023-02-28T15:43:06.237Z,54.37
2023-02-28T15:45:48.734Z,54.14
2023-02-28T15:48:19.872Z,53.66
2023-02-28T15:50:51.546Z,54.02
2023-02-28T15:53:22.559Z,54.44
2023-02-28T15:55:55.670Z,55.23
2023-02-28T15:58:23.575Z,55.18
2023-02-28T16:01:21.477Z,54.23
2023-02-28T16:03:52.049Z,54.67
2023-02-28T16:06:34.001Z,56.35
2023-02-28T16:09:00.991Z,55.75
2023-02-28T16:11:28.019Z,55.63
2023-02-28T16:13:55.162Z,55.46
2023-02-28T16:16:24.781Z,55.25
2023-02-28T16:18:52.150Z,55.61
2023-02-28T16:21:19.092Z,56.74
2023-02-28T16:23:45.831Z,57.37
2023-02-28T16:26:22.867Z,56.96
2023-02-28T16:28:50.923Z,56.53
2023-02-28T16:31:18.057Z,57.48
2023-02-28T16:33:46.159Z,58.58
2023-02-28T16:36:24.394Z,59.10
2023-02-28T16:38:51.094Z,58.82
2023-02-28T16:41:22.883Z,57.73
2023-02-28T16:43:53.173Z,59.12
2023-02-28T16:46:21.078Z,58.48
2023-02-28T16:48:48.260Z,58.30
2023-02-28T16:51:16.835Z,58.38
2023-02-28T16:53:44.866Z,57.37
2023-02-28T16:56:17.687Z,55.95
2023-02-28T16:58:44.735Z,56.92
2023-02-28T17:01:11.564Z,57.39
2023-02-28T17:03:38.417Z,56.94
2023-02-28T17:06:06.298Z,56.91
2023-02-28T17:08:33.214Z,57.91
2023-02-28T17:11:00.380Z,57.90
2023-02-28T17:13:27.039Z,59.23
2023-02-28T17:15:54.121Z,57.72
2023-02-28T17:18:21.756Z,59.17
2023-02-28T17:20:49.475Z,58.14
2023-02-28T17:23:16.268Z,58.22
2023-02-28T17:25:42.897Z,57.24
2023-02-28T17:28:10.050Z,58.97
2023-02-28T17:30:36.702Z,57.98
2023-02-28T17:33:03.391Z,57.87
2023-02-28T17:35:30.298Z,57.20
2023-02-28T17:37:57.350Z,58.47
2023-02-28T17:40:24.869Z,58.27
2023-02-28T17:42:51.947Z,58.66
2023-02-28T17:45:19.006Z,58.25
2023-02-28T17:47:48.980Z,58.44
2023-02-28T17:50:18.959Z,60.01
2023-02-28T17:52:45.622Z,59.54
2023-02-28T17:55:12.352Z,58.92
2023-02-28T17:57:39.201Z,59.23
2023-02-28T18:00:07.545Z,59.28
2023-02-28T18:02:34.335Z,58.33
2023-02-28T18:05:01.090Z,59.37
2023-02-28T18:07:27.777Z,59.14
2023-02-28T18:09:54.412Z,58.51
2023-02-28T18:12:21.140Z,59.53
2023-02-28T18:14:47.803Z,61.36
2023-02-28T18:17:14.699Z,60.36
2023-02-28T18:19:41.567Z,60.40
2023-02-28T18:22:08.326Z,60.71
2023-02-28T18:24:35.916Z,60.61
2023-02-28T18:27:02.989Z,58.23
2023-02-28T18:29:30.202Z,60.02
2023-02-28T18:31:57.222Z,61.09
2023-02-28T18:34:25.249Z,60.34
2023-02-28T18:36:52.943Z,61.28
2023-02-28T18:39:20.001Z,62.60
2023-02-28T18:41:46.817Z,61.64
2023-02-28T18:44:21.326Z,60.64
2023-02-28T18:46:49.712Z,59.95
2023-02-28T18:49:17.522Z,59.20
2023-02-28T18:51:44.219Z,58.03
2023-02-28T18:54:11.598Z,60.03
2023-02-28T18:56:38.304Z,60.04
2023-02-28T18:59:05.556Z,60.34
2023-02-28T19:01:32.585Z,60.60
2023-02-28T19:04:01.248Z,60.48
2023-02-28T19:06:28.671Z,59.85
2023-02-28T19:08:57.454Z,59.50
2023-02-28T19:11:25.483Z,60.87
2023-02-28T19:13:52.808Z,61.93
2023-02-28T19:16:22.138Z,61.60
2023-02-28T19:18:49.326Z,61.47
2023-02-28T19:21:18.413Z,61.85
2023-02-28T19:23:45.265Z,62.74
2023-02-28T19:26:18.088Z,61.22
2023-02-28T19:28:48.378Z,60.07
2023-02-28T19:31:18.444Z,61.17
2023-02-28T19:33:45.287Z,60.76
2023-02-28T19:36:13.001Z,61.76
2023-02-28T19:38:41.212Z,62.19
2023-02-28T19:41:11.177Z,62.76
2023-02-28T19:43:38.225Z,63.80
2023-02-28T19:46:05.529Z,64.85
2023-02-28T19:48:32.523Z,63.65
2023-02-28T19:51:02.139Z,63.47
2023-02-28T19:53:34.094Z,64.10
2023-02-28T19:56:01.246Z,63.80
2023-02-28T19:58:28.137Z,64.26
2023-02-28T20:00:54.942Z,63.82
2023-02-28T20:03:22.203Z,64.08
2023-02-28T20:06:04.101Z,63.43
2023-02-28T20:08:30.810Z,62.72
2023-02-28T20:11:03.858Z,63.37
2023-02-28T20:13:30.688Z,63.50
2023-02-28T20:16:06.144Z,64.68
2023-02-28T20:18:33.970Z,64.54
2023-02-28T20:21:00.818Z,64.12
2023-02-28T20:23:27.900Z,65.88
2023-02-28T20:25:54.876Z,64.45
2023-02-28T20:28:21.511Z,65.63
2023-02-28T20:30:48.201Z,64.92
2023-02-28T20:33:16.793Z,65.43
2023-02-28T20:35:43.650Z,64.59
2023-02-28T20:38:11.292Z,63.47
2023-02-28T20:40:38.237Z,63.57
2023-02-28T20:43:04.882Z,64.15
2023-02-28T20:45:31.495Z,64.63
2023-02-28T20:47:58.191Z,64.26
2023-02-28T20:50:25.075Z,63.85
2023-02-28T20:52:51.731Z,65.28
2023-02-28T20:55:18.632Z,65.44
2023-02-28T20:57:45.510Z,65.04
2023-02-28T21:00:13.043Z,66.51
2023-02-28T21:02:39.719Z,65.53
2023-02-28T21:05:06.678Z,66.09
2023-02-28T21:07:33.459Z,65.43
2023-02-28T21:10:00.169Z,64.53
2023-02-28T21:12:26.981Z,65.19
2023-02-28T21:14:53.679Z,66.38
2023-02-28T21:17:20.319Z,65.71
2023-02-28T21:19:46.911Z,66.07
2023-02-28T21:22:13.861Z,65.34
2023-02-28T21:24:40.475Z,66.34
2023-02-28T21:27:07.318Z,65.94
2023-02-28T21:29:34.047Z,66.49
2023-02-28T21:32:00.705Z,65.76
2023-02-28T21:34:27.607Z,66.04
2023-02-28T21:36:54.244Z,66.56
2023-02-28T21:39:23.840Z,65.93
2023-02-28T21:41:50.448Z,66.64
2023-02-28T21:44:17.169Z,66.28
2023-02-28T21:46:46.195Z,65.80
2023-02-28T21:49:13.492Z,67.05
2023-02-28T21:51:40.439Z,66.61
2023-02-28T21:54:07.147Z,66.22
2023-02-28T21:56:34.704Z,66.32
2023-02-28T21:59:03.219Z,66.54
2023-02-28T22:01:32.857Z,66.99
2023-02-28T22:04:00.376Z,66.66
2023-02-28T22:06:32.806Z,67.33
2023-02-28T22:09:01.993Z,66.52
2023-02-28T22:11:29.101Z,66.65
2023-02-28T22:13:57.292Z,65.87
2023-02-28T22:16:26.529Z,66.30
2023-02-28T22:18:54.089Z,66.96
2023-02-28T22:21:22.064Z,67.58
2023-02-28T22:23:49.459Z,66.42
2023-02-28T22:26:18.866Z,66.10
2023-02-28T22:28:46.270Z,66.07
2023-02-28T22:31:13.056Z,66.04
2023-02-28T22:33:39.786Z,65.68
2023-02-28T22:36:06.906Z,67.12
2023-02-28T22:38:34.442Z,67.64
2023-02-28T22:41:02.032Z,66.47
2023-02-28T22:43:28.946Z,67.63
2023-02-28T22:45:55.563Z,67.21
2023-02-28T22:48:22.218Z,66.41
2023-02-28T22:50:48.916Z,66.92
2023-02-28T22:53:15.498Z,66.93
2023-02-28T22:55:42.158Z,67.00
2023-02-28T22:58:08.875Z,65.96
2023-02-28T23:00:35.572Z,67.27
2023-02-28T23:03:02.302Z,66.90
2023-02-28T23:05:30.516Z,66.66
2023-02-28T23:07:57.201Z,66.47
2023-02-28T23:10:23.844Z,67.30
2023-02-28T23:12:50.451Z,66.98
2023-02-28T23:15:18.558Z,67.30
2023-02-28T23:17:46.419Z,66.83
2023-02-28T23:20:20.335Z,67.52
2023-02-28T23:22:47.043Z,66.94
2023-02-28T23:25:14.267Z,67.78
2023-02-28T23:27:41.212Z,66.67
2023-02-28T23:30:08.991Z,67.56
2023-02-28T23:32:35.796Z,67.54
2023-02-28T23:35:02.681Z,67.52
2023-02-28T23:37:29.295Z,67.18
2023-02-28T23:39:55.995Z,68.53
2023-02-28T23:42:22.810Z,67.09
2023-02-28T23:44:49.532Z,68.49
2023-02-28T23:47:16.182Z,67.47
2023-02-28T23:49:42.899Z,67.50
2023-02-28T23:52:10.317Z,68.24
2023-02-28T23:54:37.024Z,68.71
2023-02-28T23:57:03.667Z,67.70
2023-02-28T23:59:30.499Z,67.98
